Terminal Aerodrome Forecast
Issued by NWS

Home | Current Version | Previous Version | Text Only | Print | Product List | Glossary On
Versions: 1 2 3 4 5 6 7 8 9 10 11 12 13
000
FTUS45 KGGW 260500
TAFOLF
TAF
KOLF 260520Z 2606/2706 08009KT P6SM BKN150
     FM260900 VRB04KT P6SM SCT140
     FM261800 28020G30KT P6SM SCT100
     FM270000 27007KT P6SM BKN090=

USA.gov is the U.S. government's official web portal to all federal, state and local government web resources and services.